Huvudsida
METAR-TAF:

METAR-TAF

Flygplatser :

Karachi, Uzbekistan

latitud: 38-48-12N, longitud: 065-46-24E, höjd: 375 m

Aktuellt väderrapport

Denna rapport gjordes för 49 minuter sedan, klockan 08:00 UTC
Vind 2 kt varierande vindriktning
Temperatur 24°C
Fuktighet 22%
Tryck 1021 hPa
Sikt 10 km eller mer
Inga moln under 1 500 m eller inga cumulonimbus

METAR: UTSK 210800Z VRB02KT CAVOK 24/01 Q1021 R16/CLRD70

Tid: 13:49 (08:49 UTC)

Väderprognos

Denna rapport gjordes för 2 timmar och 53 minuter sedan, klockan 05:56 UTC
Prognos gäller från 21 kl. 07 UTC till 21 kl. 16 UTC
Vind 3 kt varierande vindriktning
Sikt 10 km eller mer
Inga moln under 1 500 m eller inga cumulonimbus
Temporärt
från 21 kl. 07 UTC till 21 kl. 16 UTC
Vind 10 kt från väst i byarna ända upp till 20 kt

TAF: UTSK 210556Z 2107/2116 VRB03KT CAVOK TEMPO 2107/2116 28010G20KT

Aktuella väderrapporter och prognoser från 4000 flygplatser (METAR- och TAF-rapporter).

De tillgängliga stationerna syns som gula och röda prickar på kartan.

För musen över prickarna för att se namnen på stationerna.

Klicka sedan för att få väderrapporter och prognoser.

För att ändra kartan: Klicka på de gröna knapparna med ett svart kors på för att zooma in; den gröna knappen med ett streck på för att zooma ut; eller på de gröna pilarna för angränsande kartor.


METAR-TAF: